createdAt,value
2017-10-01T00:01:46.264Z,101286.81
2017-10-01T00:04:14.195Z,101284.45
2017-10-01T00:06:41.787Z,101285.38
2017-10-01T00:09:09.380Z,101289.28
2017-10-01T00:11:37.018Z,101286.95
2017-10-01T00:14:04.644Z,101282.17
2017-10-01T00:16:32.229Z,101281.22
2017-10-01T00:18:59.847Z,101286.77
2017-10-01T00:21:27.425Z,101285.84
2017-10-01T00:23:55.007Z,101295.80
2017-10-01T00:26:22.630Z,101292.42
2017-10-01T00:28:50.219Z,101294.23
2017-10-01T00:31:17.880Z,101292.05
2017-10-01T00:33:45.506Z,101294.41
2017-10-01T00:36:13.104Z,101294.97
2017-10-01T00:38:40.698Z,101290.92
2017-10-01T00:41:08.353Z,101287.50
2017-10-01T00:43:35.938Z,101291.39
2017-10-01T00:46:03.518Z,101277.02
2017-10-01T00:48:31.144Z,101284.44
2017-10-01T00:50:58.739Z,101283.10
2017-10-01T00:53:26.319Z,101291.56
2017-10-01T00:55:54.204Z,101288.73
2017-10-01T00:58:21.824Z,101291.37
2017-10-01T01:00:49.727Z,101295.55
2017-10-01T01:03:17.343Z,101291.19
2017-10-01T01:05:45.260Z,101293.78
2017-10-01T01:08:12.845Z,101297.48
2017-10-01T01:10:40.460Z,101306.98
2017-10-01T01:13:08.049Z,101302.36
2017-10-01T01:15:35.640Z,101309.48
2017-10-01T01:18:03.251Z,101304.43
2017-10-01T01:20:30.845Z,101303.50
2017-10-01T01:22:58.428Z,101307.13
2017-10-01T01:25:26.062Z,101305.52
2017-10-01T01:27:53.646Z,101298.64
2017-10-01T01:30:21.248Z,101313.51
2017-10-01T01:32:48.872Z,101309.55
2017-10-01T01:35:16.460Z,101311.27
2017-10-01T01:37:44.061Z,101312.98
2017-10-01T01:40:11.685Z,101308.03
2017-10-01T01:42:39.279Z,101317.94
2017-10-01T01:45:07.153Z,101318.95
2017-10-01T01:47:34.766Z,101323.47
2017-10-01T01:50:02.354Z,101325.48
2017-10-01T01:52:29.947Z,101323.36
2017-10-01T01:54:57.915Z,101325.95
2017-10-01T01:57:25.881Z,101324.10
2017-10-01T01:59:53.493Z,101328.95
2017-10-01T02:02:21.112Z,101332.23
2017-10-01T02:04:48.700Z,101333.97
2017-10-01T02:07:16.290Z,101334.27
2017-10-01T02:09:44.214Z,101335.08
2017-10-01T02:12:11.819Z,101337.86
2017-10-01T02:14:39.404Z,101332.34
2017-10-01T02:17:07.028Z,101339.34
2017-10-01T02:19:34.612Z,101336.26
2017-10-01T02:22:02.230Z,101335.05
2017-10-01T02:24:29.851Z,101342.61
2017-10-01T02:26:57.440Z,101337.15
2017-10-01T02:29:25.040Z,101339.41
2017-10-01T02:31:52.662Z,101344.27
2017-10-01T02:34:20.248Z,101345.66
2017-10-01T02:36:48.108Z,101349.15
2017-10-01T02:39:15.724Z,101339.81
2017-10-01T02:41:43.612Z,101348.47
2017-10-01T02:44:11.482Z,101349.48
2017-10-01T02:46:39.107Z,101349.16
2017-10-01T02:49:07.017Z,101353.98
2017-10-01T02:51:34.614Z,101356.48
2017-10-01T02:54:02.236Z,101358.81
2017-10-01T02:56:29.819Z,101359.47
2017-10-01T02:58:57.659Z,101363.23
2017-10-01T03:01:25.533Z,101367.33
2017-10-01T03:03:53.113Z,101370.13
2017-10-01T03:06:20.718Z,101374.04
2017-10-01T03:08:48.352Z,101361.73
2017-10-01T03:11:16.184Z,101368.34
2017-10-01T03:13:43.771Z,101373.06
2017-10-01T03:16:11.399Z,101369.69
2017-10-01T03:18:38.992Z,101372.05
2017-10-01T03:21:06.579Z,101371.57
2017-10-01T03:23:34.217Z,101377.66
2017-10-01T03:26:02.066Z,101382.02
2017-10-01T03:28:29.660Z,101378.77
2017-10-01T03:30:57.290Z,101385.30
2017-10-01T03:33:24.872Z,101387.27
2017-10-01T03:35:52.454Z,101388.75
2017-10-01T03:38:20.074Z,101388.25
2017-10-01T03:40:47.931Z,101393.88
2017-10-01T03:43:15.525Z,101392.84
2017-10-01T03:45:43.169Z,101393.88
2017-10-01T03:48:10.755Z,101392.45
2017-10-01T03:50:38.349Z,101392.95
2017-10-01T03:53:05.975Z,101393.67
2017-10-01T03:55:33.569Z,101399.06
2017-10-01T03:58:01.156Z,101397.27
2017-10-01T04:00:29.037Z,101402.81
2017-10-01T04:02:56.634Z,101399.65
2017-10-01T04:05:24.222Z,101405.58
2017-10-01T04:07:51.843Z,101407.23
2017-10-01T04:10:19.433Z,101410.35
2017-10-01T04:12:47.025Z,101407.25
2017-10-01T04:15:14.652Z,101406.37
2017-10-01T04:17:42.235Z,101404.62
2017-10-01T04:20:10.136Z,101413.17
2017-10-01T04:22:37.761Z,101419.83
2017-10-01T04:25:05.349Z,101423.77
2017-10-01T04:27:32.943Z,101430.37
2017-10-01T04:30:00.575Z,101428.70
2017-10-01T04:32:28.158Z,101425.57
2017-10-01T04:34:55.795Z,101428.38
2017-10-01T04:37:24.144Z,101429.50
2017-10-01T04:39:51.736Z,101430.34
2017-10-01T04:42:19.319Z,101430.80
2017-10-01T04:44:46.937Z,101433.98
2017-10-01T04:47:14.540Z,101434.16
2017-10-01T04:49:42.407Z,101439.27
2017-10-01T04:52:10.371Z,101445.83
2017-10-01T04:54:37.959Z,101446.71
2017-10-01T04:57:05.537Z,101451.06
2017-10-01T04:59:33.195Z,101455.42
2017-10-01T05:02:00.791Z,101457.89
2017-10-01T05:04:28.392Z,101454.36
2017-10-01T05:06:56.034Z,101463.02
2017-10-01T05:09:23.912Z,101460.30
2017-10-01T05:11:51.489Z,101461.08
2017-10-01T05:14:19.115Z,101457.23
2017-10-01T05:16:46.699Z,101459.80
2017-10-01T05:19:14.561Z,101460.30
2017-10-01T05:21:42.226Z,101455.28
2017-10-01T05:24:09.840Z,101459.72
2017-10-01T05:26:37.425Z,101457.32
2017-10-01T05:29:05.065Z,101457.62
2017-10-01T05:31:32.656Z,101462.89
2017-10-01T05:34:00.231Z,101465.00
2017-10-01T05:36:27.855Z,101461.66
2017-10-01T05:38:55.453Z,101468.59
2017-10-01T05:41:23.046Z,101471.69
2017-10-01T05:43:50.681Z,101475.46
2017-10-01T05:46:18.272Z,101472.28
2017-10-01T05:48:46.113Z,101476.16
2017-10-01T05:51:13.739Z,101476.02
2017-10-01T05:53:41.331Z,101478.19
2017-10-01T05:56:09.315Z,101478.09
2017-10-01T05:58:36.935Z,101483.31
2017-10-01T06:01:04.519Z,101481.19
2017-10-01T06:03:32.397Z,101486.34
2017-10-01T06:06:00.032Z,101484.83
2017-10-01T06:08:27.933Z,101485.44
2017-10-01T06:10:55.512Z,101485.94
2017-10-01T06:13:23.136Z,101487.22
2017-10-01T06:15:50.714Z,101495.09
2017-10-01T06:18:18.309Z,101498.30
2017-10-01T06:20:46.206Z,101501.73
2017-10-01T06:23:13.798Z,101505.41
2017-10-01T06:25:41.679Z,101503.27
2017-10-01T06:28:09.322Z,101505.83
2017-10-01T06:30:36.901Z,101503.66
2017-10-01T06:33:04.484Z,101497.73
2017-10-01T06:35:32.123Z,101508.20
2017-10-01T06:37:59.720Z,101509.04
2017-10-01T06:40:27.337Z,101503.34
2017-10-01T06:42:54.972Z,101510.31
2017-10-01T06:45:22.579Z,101514.46
2017-10-01T06:47:50.844Z,101515.79
2017-10-01T06:50:18.635Z,101516.58
2017-10-01T06:52:46.271Z,101526.52
2017-10-01T06:55:13.862Z,101522.12
2017-10-01T06:57:41.501Z,101530.88
2017-10-01T07:00:09.071Z,101532.61
2017-10-01T07:02:36.646Z,101532.91
2017-10-01T07:05:04.285Z,101533.48
2017-10-01T07:07:31.883Z,101539.34
2017-10-01T07:09:59.916Z,101542.22
2017-10-01T07:12:27.889Z,101543.66
2017-10-01T07:14:55.475Z,101553.27
2017-10-01T07:17:23.084Z,101546.65
2017-10-01T07:19:50.730Z,101547.24
2017-10-01T07:22:18.320Z,101553.98
2017-10-01T07:24:45.933Z,101565.68
2017-10-01T07:27:13.554Z,101568.59
2017-10-01T07:29:41.145Z,101566.88
2017-10-01T07:32:09.083Z,101574.04
2017-10-01T07:34:36.707Z,101571.69
2017-10-01T07:37:04.617Z,101578.81
2017-10-01T07:39:32.221Z,101583.05
2017-10-01T07:41:59.911Z,101586.44
2017-10-01T07:44:27.863Z,101583.00
2017-10-01T07:46:55.447Z,101586.98
2017-10-01T07:49:23.087Z,101588.28
2017-10-01T07:51:50.676Z,101585.19
2017-10-01T07:54:18.268Z,101585.14
2017-10-01T07:56:45.895Z,101587.56
2017-10-01T07:59:13.485Z,101599.37
2017-10-01T08:01:41.075Z,101601.81
2017-10-01T08:04:09.018Z,101603.78
2017-10-01T08:06:36.604Z,101604.15
2017-10-01T08:09:04.197Z,101599.75
2017-10-01T08:11:31.823Z,101599.46
2017-10-01T08:13:59.418Z,101605.94
2017-10-01T08:16:27.025Z,101609.75
2017-10-01T08:18:54.651Z,101606.75
2017-10-01T08:21:22.553Z,101607.42
2017-10-01T08:23:50.135Z,101610.88
2017-10-01T08:26:17.769Z,101611.03
2017-10-01T08:28:45.373Z,101617.24
2017-10-01T08:31:12.988Z,101618.14
2017-10-01T08:33:41.004Z,101612.72
2017-10-01T08:36:09.148Z,101615.46
2017-10-01T08:38:36.737Z,101623.30
2017-10-01T08:41:04.380Z,101618.84
2017-10-01T08:43:31.988Z,101623.41
2017-10-01T08:45:59.617Z,101624.33
2017-10-01T08:48:27.277Z,101623.08
2017-10-01T08:50:54.907Z,101631.34
2017-10-01T08:53:22.756Z,101632.52
2017-10-01T08:55:50.760Z,101632.02
2017-10-01T08:58:18.361Z,101632.61
2017-10-01T09:00:45.951Z,101635.76
2017-10-01T09:03:13.629Z,101634.36
2017-10-01T09:05:41.209Z,101638.61
2017-10-01T09:08:08.807Z,101642.43
2017-10-01T09:10:36.433Z,101637.84
2017-10-01T09:13:04.020Z,101641.91
2017-10-01T09:15:31.609Z,101643.75
2017-10-01T09:17:59.236Z,101642.75
2017-10-01T09:20:26.837Z,101645.02
2017-10-01T09:22:54.428Z,101647.66
2017-10-01T09:25:22.053Z,101649.45
2017-10-01T09:27:49.634Z,101647.98
2017-10-01T09:30:17.250Z,101656.03
2017-10-01T09:32:44.877Z,101643.58
2017-10-01T09:35:12.469Z,101636.08
2017-10-01T09:37:40.066Z,101643.15
2017-10-01T09:40:08.057Z,101643.98
2017-10-01T09:42:35.661Z,101648.77
2017-10-01T09:45:03.251Z,101643.06
2017-10-01T09:47:30.876Z,101643.56
2017-10-01T09:49:58.456Z,101646.75
2017-10-01T09:52:26.296Z,101642.26
2017-10-01T09:54:53.921Z,101650.66
2017-10-01T09:57:21.528Z,101649.39
2017-10-01T09:59:49.103Z,101644.25
2017-10-01T10:02:16.711Z,101648.86
2017-10-01T10:04:44.308Z,101650.56
2017-10-01T10:07:11.883Z,101650.42
2017-10-01T10:09:39.496Z,101653.25
2017-10-01T10:12:07.087Z,101657.13
2017-10-01T10:14:34.664Z,101659.14
2017-10-01T10:17:02.277Z,101656.16
2017-10-01T10:19:29.917Z,101662.77
2017-10-01T10:21:57.502Z,101658.28
2017-10-01T10:24:25.401Z,101667.61
2017-10-01T10:26:52.966Z,101662.19
2017-10-01T10:29:20.541Z,101668.70
2017-10-01T10:31:48.167Z,101665.80
2017-10-01T10:34:16.046Z,101667.48
2017-10-01T10:36:43.963Z,101664.32
2017-10-01T10:39:11.577Z,101668.77
2017-10-01T10:41:39.154Z,101677.08
2017-10-01T10:44:06.751Z,101678.69
2017-10-01T10:46:34.412Z,101675.16
2017-10-01T10:49:02.005Z,101683.97
2017-10-01T10:51:29.611Z,101685.34
2017-10-01T10:53:57.225Z,101683.22
2017-10-01T10:56:24.803Z,101684.98
2017-10-01T10:58:52.408Z,101685.91
2017-10-01T11:01:20.072Z,101691.13
2017-10-01T11:03:47.648Z,101688.22
2017-10-01T11:06:15.255Z,101690.67
2017-10-01T11:08:43.130Z,101688.73
2017-10-01T11:11:10.720Z,101687.32
2017-10-01T11:13:38.656Z,101687.55
2017-10-01T11:16:06.316Z,101687.46
2017-10-01T11:18:34.197Z,101691.09
2017-10-01T11:21:01.786Z,101695.75
2017-10-01T11:23:29.826Z,101695.00
2017-10-01T11:25:57.420Z,101692.27
2017-10-01T11:28:25.041Z,101692.79
2017-10-01T11:30:52.671Z,101689.16
2017-10-01T11:33:20.275Z,101695.97
2017-10-01T11:35:50.255Z,101691.77
2017-10-01T11:38:17.912Z,101697.02
2017-10-01T11:40:45.524Z,101692.57
2017-10-01T11:43:13.105Z,101699.75
2017-10-01T11:45:40.724Z,101704.97
2017-10-01T11:48:08.346Z,101704.14
2017-10-01T11:50:35.936Z,101700.52
2017-10-01T11:53:03.833Z,101709.14
2017-10-01T11:55:31.432Z,101716.03
2017-10-01T11:57:59.032Z,101712.50
2017-10-01T12:00:26.920Z,101716.33
2017-10-01T12:02:54.507Z,101717.83
2017-10-01T12:05:22.354Z,101713.72
2017-10-01T12:07:50.326Z,101714.66
2017-10-01T12:10:17.937Z,101715.67
2017-10-01T12:12:45.545Z,101710.09
2017-10-01T12:15:13.520Z,101708.09
2017-10-01T12:17:41.382Z,101709.77
2017-10-01T12:20:08.986Z,101709.03
2017-10-01T12:22:36.610Z,101714.11
2017-10-01T12:25:04.196Z,101708.62
2017-10-01T12:27:31.792Z,101718.67
2017-10-01T12:29:59.440Z,101723.10
2017-10-01T12:32:27.067Z,101727.16
2017-10-01T12:34:54.649Z,101726.97
2017-10-01T12:37:22.290Z,101727.42
2017-10-01T12:39:49.945Z,101729.08
2017-10-01T12:42:18.988Z,101727.11
2017-10-01T12:47:20.520Z,101743.55
2017-10-01T12:49:48.213Z,101741.83
2017-10-01T12:52:16.245Z,101743.92
2017-10-01T12:54:44.087Z,101738.63
2017-10-01T12:57:11.798Z,101737.04
2017-10-01T12:59:39.387Z,101738.42
2017-10-01T13:02:12.604Z,101737.84
2017-10-01T13:04:40.277Z,101736.83
2017-10-01T13:07:07.871Z,101743.41
2017-10-01T13:09:35.516Z,101740.03
2017-10-01T13:12:03.104Z,101742.37
2017-10-01T13:14:30.697Z,101741.66
2017-10-01T13:16:58.326Z,101743.66
2017-10-01T13:19:26.486Z,101744.16
2017-10-01T13:21:54.073Z,101744.99
2017-10-01T13:24:21.715Z,101762.73
2017-10-01T13:26:49.297Z,101758.84
2017-10-01T13:29:16.930Z,101762.47
2017-10-01T13:31:44.564Z,101757.59
2017-10-01T13:34:12.255Z,101764.33
2017-10-01T13:36:39.850Z,101763.71
2017-10-01T13:39:07.487Z,101754.81
2017-10-01T13:41:35.133Z,101752.17
2017-10-01T13:44:02.741Z,101751.14
2017-10-01T13:46:30.772Z,101751.05
2017-10-01T13:48:58.386Z,101748.28
2017-10-01T13:51:25.980Z,101749.39
2017-10-01T13:53:53.624Z,101747.08
2017-10-01T13:56:21.238Z,101752.48
2017-10-01T13:58:48.836Z,101751.80
2017-10-01T14:01:17.088Z,101746.98
2017-10-01T14:03:44.680Z,101746.31
2017-10-01T14:06:12.267Z,101740.30
2017-10-01T14:08:39.895Z,101743.71
2017-10-01T14:11:07.807Z,101742.91
2017-10-01T14:13:35.637Z,101741.89
2017-10-01T14:16:03.277Z,101750.55
2017-10-01T14:18:30.866Z,101750.30
2017-10-01T14:20:58.444Z,101744.81
2017-10-01T14:23:26.129Z,101746.16
2017-10-01T14:25:53.740Z,101748.11
2017-10-01T14:28:21.342Z,101744.73
2017-10-01T14:30:54.750Z,101744.41
2017-10-01T14:33:22.344Z,101744.84
2017-10-01T14:35:49.925Z,101745.89
2017-10-01T14:38:17.564Z,101742.58
2017-10-01T14:40:45.153Z,101745.15
2017-10-01T14:43:13.064Z,101746.79
2017-10-01T14:45:40.710Z,101744.86
2017-10-01T14:48:08.326Z,101757.45
2017-10-01T14:50:35.920Z,101747.36
2017-10-01T14:53:03.591Z,101740.90
2017-10-01T14:55:31.215Z,101750.05
2017-10-01T14:57:58.807Z,101754.56
2017-10-01T15:00:26.453Z,101755.31
2017-10-01T15:02:54.098Z,101751.39
2017-10-01T15:05:21.735Z,101753.81
2017-10-01T15:07:49.359Z,101745.77
2017-10-01T15:10:16.949Z,101748.75
2017-10-01T15:12:44.533Z,101743.59
2017-10-01T15:15:12.165Z,101743.55
2017-10-01T15:17:40.039Z,101743.32
2017-10-01T15:20:07.644Z,101744.48
2017-10-01T15:22:35.276Z,101740.72
2017-10-01T15:25:02.852Z,101749.00
2017-10-01T15:27:30.444Z,101744.99
2017-10-01T15:29:58.076Z,101741.86
2017-10-01T15:32:26.016Z,101737.91
2017-10-01T15:34:53.599Z,101744.48
2017-10-01T15:37:21.332Z,101740.69
2017-10-01T15:39:48.991Z,101734.41
2017-10-01T15:42:16.626Z,101736.56
2017-10-01T15:44:44.250Z,101736.00
2017-10-01T15:47:11.845Z,101735.81
2017-10-01T15:49:39.452Z,101735.22
2017-10-01T15:52:07.101Z,101738.27
2017-10-01T15:54:34.726Z,101741.69
2017-10-01T15:57:02.338Z,101741.59
2017-10-01T15:59:30.314Z,101735.91
2017-10-01T16:01:57.923Z,101731.70
2017-10-01T16:04:25.581Z,101729.27
2017-10-01T16:06:53.254Z,101733.53
2017-10-01T16:09:21.082Z,101734.99
2017-10-01T16:11:48.731Z,101752.34
2017-10-01T16:14:16.653Z,101753.77
2017-10-01T16:16:45.384Z,101751.27
2017-10-01T16:19:13.363Z,101753.70
2017-10-01T16:21:41.020Z,101751.84
2017-10-01T16:24:08.630Z,101751.07
2017-10-01T16:26:36.220Z,101748.50
2017-10-01T16:29:03.862Z,101743.28
2017-10-01T16:31:31.496Z,101746.22
2017-10-01T16:33:59.098Z,101748.73
2017-10-01T16:36:26.791Z,101744.05
2017-10-01T16:38:54.503Z,101750.86
2017-10-01T16:41:22.107Z,101755.95
2017-10-01T16:43:49.740Z,101755.55
2017-10-01T16:46:17.394Z,101758.58
2017-10-01T16:48:44.984Z,101756.98
2017-10-01T16:51:12.651Z,101758.75
2017-10-01T16:53:40.298Z,101759.13
2017-10-01T16:56:07.899Z,101762.36
2017-10-01T16:58:35.547Z,101767.02
2017-10-01T17:01:03.167Z,101765.26
2017-10-01T17:03:30.756Z,101766.19
2017-10-01T17:05:58.751Z,101767.28
2017-10-01T17:08:26.362Z,101769.45
2017-10-01T17:10:54.029Z,101767.77
2017-10-01T17:13:21.691Z,101765.33
2017-10-01T17:15:49.295Z,101769.19
2017-10-01T17:18:16.906Z,101772.13
2017-10-01T17:20:44.546Z,101767.00
2017-10-01T17:23:12.600Z,101766.20
2017-10-01T17:25:40.196Z,101771.54
2017-10-01T17:28:07.830Z,101771.45
2017-10-01T17:30:35.438Z,101767.22
2017-10-01T17:33:03.045Z,101772.91
2017-10-01T17:35:30.667Z,101770.01
2017-10-01T17:37:58.259Z,101775.20
2017-10-01T17:40:25.859Z,101774.58
2017-10-01T17:42:53.489Z,101778.47
2017-10-01T17:45:21.100Z,101772.53
2017-10-01T17:47:48.704Z,101770.09
2017-10-01T17:50:16.341Z,101773.88
2017-10-01T17:52:43.950Z,101775.03
2017-10-01T17:55:11.562Z,101773.13
2017-10-01T17:57:39.184Z,101786.01
2017-10-01T18:00:06.849Z,101782.92
2017-10-01T18:02:34.518Z,101783.55
2017-10-01T18:05:02.561Z,101781.41
2017-10-01T18:07:30.557Z,101778.87
2017-10-01T18:09:58.157Z,101790.59
2017-10-01T18:12:25.823Z,101785.13
2017-10-01T18:14:53.723Z,101792.17
2017-10-01T18:17:21.315Z,101795.24
2017-10-01T18:19:49.251Z,101787.44
2017-10-01T18:22:16.834Z,101790.04
2017-10-01T18:24:44.436Z,101785.02
2017-10-01T18:27:12.099Z,101784.00
2017-10-01T18:29:39.711Z,101780.56
2017-10-01T18:32:07.570Z,101782.08
2017-10-01T18:34:35.541Z,101785.61
2017-10-01T18:37:03.123Z,101793.16
2017-10-01T18:39:30.729Z,101790.56
2017-10-01T18:41:58.634Z,101789.27
2017-10-01T18:44:26.224Z,101788.14
2017-10-01T18:46:54.188Z,101792.17
2017-10-01T18:49:21.816Z,101789.53
2017-10-01T18:51:49.416Z,101782.64
2017-10-01T18:54:17.014Z,101788.12
2017-10-01T18:56:44.669Z,101782.08
2017-10-01T18:59:12.261Z,101777.59
2017-10-01T19:01:39.871Z,101779.42
2017-10-01T19:04:07.505Z,101777.33
2017-10-01T19:06:35.128Z,101771.20
2017-10-01T19:09:02.739Z,101776.95
2017-10-01T19:11:30.397Z,101782.50
2017-10-01T19:13:57.996Z,101778.39
2017-10-01T19:16:25.579Z,101776.95
2017-10-01T19:18:53.204Z,101774.79
2017-10-01T19:21:20.806Z,101769.55
2017-10-01T19:23:48.431Z,101772.16
2017-10-01T19:26:16.061Z,101772.20
2017-10-01T19:28:43.922Z,101771.88
2017-10-01T19:31:11.514Z,101772.20
2017-10-01T19:33:39.144Z,101767.01
2017-10-01T19:36:06.752Z,101770.41
2017-10-01T19:38:34.682Z,101760.93
2017-10-01T19:41:02.321Z,101765.22
2017-10-01T19:43:29.927Z,101764.50
2017-10-01T19:45:57.515Z,101762.66
2017-10-01T19:48:25.178Z,101764.33
2017-10-01T19:50:52.767Z,101758.30
2017-10-01T19:53:20.367Z,101755.77
2017-10-01T19:55:47.999Z,101749.70
2017-10-01T19:58:15.594Z,101742.56
2017-10-01T20:00:43.239Z,101746.50
2017-10-01T20:03:10.888Z,101742.85
2017-10-01T20:05:38.483Z,101740.09
2017-10-01T20:08:06.076Z,101742.54
2017-10-01T20:10:33.710Z,101742.95
2017-10-01T20:13:01.379Z,101738.41
2017-10-01T20:15:28.974Z,101734.23
2017-10-01T20:17:56.596Z,101736.80
2017-10-01T20:20:24.244Z,101736.80
2017-10-01T20:22:51.845Z,101728.49
2017-10-01T20:25:19.769Z,101727.06
2017-10-01T20:27:47.369Z,101735.05
2017-10-01T20:30:14.959Z,101732.95
2017-10-01T20:32:42.584Z,101726.53
2017-10-01T20:35:10.195Z,101727.83
2017-10-01T20:37:37.788Z,101729.00
2017-10-01T20:40:05.450Z,101726.36
2017-10-01T20:42:33.422Z,101723.51
2017-10-01T20:45:01.055Z,101731.56
2017-10-01T20:47:28.691Z,101729.81
2017-10-01T20:49:56.300Z,101732.33
2017-10-01T20:52:23.939Z,101732.19
2017-10-01T20:54:51.827Z,101732.03
2017-10-01T20:57:19.691Z,101733.28
2017-10-01T20:59:47.291Z,101734.55
2017-10-01T21:02:14.931Z,101731.95
2017-10-01T21:04:42.524Z,101737.15
2017-10-01T21:07:10.116Z,101725.07
2017-10-01T21:09:37.744Z,101729.27
2017-10-01T21:12:05.324Z,101727.00
2017-10-01T21:14:33.230Z,101716.69
2017-10-01T21:17:00.895Z,101723.44
2017-10-01T21:19:28.498Z,101716.81
2017-10-01T21:21:56.098Z,101714.84
2017-10-01T21:24:24.083Z,101717.52
2017-10-01T21:26:51.681Z,101714.92
2017-10-01T21:29:19.290Z,101715.86
2017-10-01T21:31:46.937Z,101721.84
2017-10-01T21:34:14.525Z,101721.72
2017-10-01T21:36:42.424Z,101715.13
2017-10-01T21:39:10.044Z,101716.27
2017-10-01T21:41:37.890Z,101716.36
2017-10-01T21:44:05.484Z,101716.19
2017-10-01T21:46:33.103Z,101721.59
2017-10-01T21:49:00.724Z,101722.72
2017-10-01T21:51:28.318Z,101720.34
2017-10-01T21:53:55.989Z,101722.97
2017-10-01T21:56:23.582Z,101718.28
2017-10-01T21:58:51.187Z,101715.89
2017-10-01T22:01:18.826Z,101700.05
2017-10-01T22:03:46.696Z,101701.55
2017-10-01T22:06:14.298Z,101697.11
2017-10-01T22:08:41.953Z,101691.16
2017-10-01T22:11:09.575Z,101686.00
2017-10-01T22:13:37.605Z,101680.26
2017-10-01T22:16:05.249Z,101667.80
2017-10-01T22:18:32.857Z,101668.22
2017-10-01T22:21:00.452Z,101672.05
2017-10-01T22:23:28.088Z,101668.60
2017-10-01T22:25:55.683Z,101657.33
2017-10-01T22:28:23.637Z,101653.43
2017-10-01T22:30:51.297Z,101645.13
2017-10-01T22:33:18.947Z,101646.39
2017-10-01T22:35:46.533Z,101643.83
2017-10-01T22:38:14.192Z,101642.82
2017-10-01T22:40:41.780Z,101644.33
2017-10-01T22:43:09.396Z,101647.48
2017-10-01T22:45:37.085Z,101634.23
2017-10-01T22:48:04.679Z,101637.13
2017-10-01T22:50:32.275Z,101631.72
2017-10-01T22:52:59.921Z,101630.80
2017-10-01T22:55:27.532Z,101627.20
2017-10-01T22:57:55.142Z,101628.96
2017-10-01T23:00:22.781Z,101633.36
2017-10-01T23:02:50.415Z,101634.45
2017-10-01T23:05:18.044Z,101624.27
2017-10-01T23:07:45.700Z,101618.66
2017-10-01T23:10:13.302Z,101627.20
2017-10-01T23:12:40.947Z,101626.03
2017-10-01T23:15:09.434Z,101628.45
2017-10-01T23:17:37.313Z,101621.92
2017-10-01T23:20:04.914Z,101618.16
2017-10-01T23:22:32.553Z,101611.36
2017-10-01T23:25:00.155Z,101602.73
2017-10-01T23:27:27.804Z,101608.27
2017-10-01T23:29:55.468Z,101613.37
2017-10-01T23:32:23.080Z,101621.84
2017-10-01T23:34:50.705Z,101628.12
2017-10-01T23:37:18.348Z,101627.63
2017-10-01T23:39:45.958Z,101626.95
2017-10-01T23:42:13.568Z,101621.50
2017-10-01T23:44:41.209Z,101632.64
2017-10-01T23:47:09.060Z,101623.93
2017-10-01T23:49:36.653Z,101630.88
2017-10-01T23:52:04.282Z,101622.00
2017-10-01T23:54:31.873Z,101618.91
2017-10-01T23:56:59.461Z,101625.05
2017-10-01T23:59:27.101Z,101623.88
